Time;durP1;ratioP1;P1;durP2;ratioP2;P2;SDS_P1;SDS_P2;PMS_P1;PMS_P2;Temp;Humidity;BMP_temperature;BMP_pressure;BME280_temperature;BME280_humidity;BME280_pressure;Samples;Min_cycle;Max_cycle;Signal;HPM_P1;HPM_P2
2021/07/30 00:02:15;;;;;;;12.50;5.40;;;;;;;;;;4973207;28;20027;-70
2021/07/30 00:04:41;;;;;;;12.20;4.50;;;;;;;;;;4970511;28;20027;-70
2021/07/30 00:07:07;;;;;;;13.93;4.90;;;;;;;;;;4971920;28;20088;-70
2021/07/30 00:09:33;;;;;;;9.55;4.60;;;;;;;;;;4961783;28;20031;-70
2021/07/30 00:11:59;;;;;;;13.45;5.47;;;;;;;;;;4972721;28;20062;-70
2021/07/30 00:14:25;;;;;;;12.73;4.43;;;;;;;;;;4969469;28;20026;-70
2021/07/30 00:16:51;;;;;;;12.15;4.55;;;;;;;;;;4962565;28;20020;-69
2021/07/30 00:19:16;;;;;;;14.80;5.05;;;;;;;;;;4971450;28;20073;-69
2021/07/30 00:21:42;;;;;;;13.15;4.53;;;;;;;;;;4971224;28;20122;-70
2021/07/30 00:24:08;;;;;;;14.25;4.38;;;;;;;;;;4973312;28;20054;-69
2021/07/30 00:26:34;;;;;;;11.07;4.20;;;;;;;;;;4972479;28;20034;-69
2021/07/30 00:29:00;;;;;;;10.20;5.00;;;;;;;;;;4973250;28;20038;-69
2021/07/30 00:31:26;;;;;;;11.82;4.93;;;;;;;;;;4971671;28;20018;-70
2021/07/30 00:33:52;;;;;;;12.77;5.15;;;;;;;;;;4971960;28;20089;-70
2021/07/30 00:36:18;;;;;;;13.32;4.90;;;;;;;;;;4972982;28;20481;-69
2021/07/30 00:38:44;;;;;;;12.73;4.20;;;;;;;;;;4971340;28;20489;-70
2021/07/30 00:41:10;;;;;;;11.85;4.68;;;;;;;;;;4975368;28;20113;-69
2021/07/30 00:43:36;;;;;;;13.55;4.70;;;;;;;;;;4973490;28;20030;-70
2021/07/30 00:46:02;;;;;;;9.15;4.40;;;;;;;;;;4976398;28;20030;-70
2021/07/30 00:48:29;;;;;;;12.65;4.70;;;;;;;;;;4976209;28;20031;-70
2021/07/30 00:50:55;;;;;;;14.38;4.78;;;;;;;;;;4973392;28;20018;-69
2021/07/30 00:53:21;;;;;;;11.68;4.68;;;;;;;;;;4972093;28;20540;-70
2021/07/30 00:55:48;;;;;;;12.60;4.65;;;;;;;;;;4973132;28;20113;-69
2021/07/30 00:58:14;;;;;;;12.68;5.15;;;;;;;;;;4968073;28;20028;-70
2021/07/30 01:00:41;;;;;;;13.07;4.88;;;;;;;;;;4966048;28;20036;-70
2021/07/30 01:03:08;;;;;;;10.07;4.80;;;;;;;;;;4968692;28;20027;-70
2021/07/30 01:05:35;;;;;;;12.95;4.55;;;;;;;;;;4970824;28;20647;-69
2021/07/30 01:08:01;;;;;;;13.10;5.25;;;;;;;;;;4970193;28;20106;-70
2021/07/30 01:10:27;;;;;;;10.27;4.85;;;;;;;;;;4972066;28;20052;-69
2021/07/30 01:12:54;;;;;;;12.10;4.63;;;;;;;;;;4964312;28;20465;-70
2021/07/30 01:15:20;;;;;;;9.07;4.63;;;;;;;;;;4971030;28;20066;-70
2021/07/30 01:17:46;;;;;;;10.00;5.07;;;;;;;;;;4968603;28;20058;-70
2021/07/30 01:20:12;;;;;;;11.68;4.85;;;;;;;;;;4970554;28;20037;-70
2021/07/30 01:22:50;;;;;;;10.40;4.60;;;;;;;;;;4981094;28;20026;-70
2021/07/30 01:25:16;;;;;;;13.50;4.63;;;;;;;;;;4970444;28;20089;-69
2021/07/30 01:27:42;;;;;;;9.30;4.85;;;;;;;;;;4972260;28;20035;-70
2021/07/30 01:30:08;;;;;;;9.48;4.40;;;;;;;;;;4978144;28;20054;-70
2021/07/30 01:32:34;;;;;;;9.25;4.22;;;;;;;;;;4995242;28;20031;-70
2021/07/30 01:35:02;;;;;;;15.20;4.88;;;;;;;;;;4995160;28;20046;-70
2021/07/30 01:37:28;;;;;;;10.38;4.55;;;;;;;;;;4973927;28;20058;-70
2021/07/30 01:39:54;;;;;;;11.20;4.88;;;;;;;;;;4971200;28;20077;-70
2021/07/30 01:42:20;;;;;;;10.23;4.00;;;;;;;;;;4971847;28;20429;-70
2021/07/30 01:44:46;;;;;;;11.57;4.07;;;;;;;;;;4968989;28;20027;-70
2021/07/30 01:47:13;;;;;;;11.50;4.15;;;;;;;;;;4972601;28;20027;-69
2021/07/30 01:49:39;;;;;;;8.73;4.10;;;;;;;;;;4971662;28;20033;-69
2021/07/30 01:52:05;;;;;;;12.75;4.60;;;;;;;;;;4972039;28;20393;-69
2021/07/30 01:54:31;;;;;;;13.25;4.90;;;;;;;;;;4971451;28;20026;-69
2021/07/30 01:56:57;;;;;;;16.80;4.40;;;;;;;;;;4970876;28;20027;-69
2021/07/30 01:59:23;;;;;;;14.43;4.43;;;;;;;;;;4971815;28;20060;-69
2021/07/30 02:01:49;;;;;;;10.98;4.35;;;;;;;;;;4969678;28;20023;-69
2021/07/30 02:04:18;;;;;;;11.70;3.95;;;;;;;;;;4964542;28;20473;-69
2021/07/30 02:06:44;;;;;;;15.95;4.25;;;;;;;;;;4968442;28;20119;-68
2021/07/30 02:09:10;;;;;;;12.95;5.47;;;;;;;;;;4971266;28;20472;-68
2021/07/30 02:11:36;;;;;;;10.48;4.07;;;;;;;;;;4971363;28;20034;-69
2021/07/30 02:14:15;;;;;;;12.00;5.32;;;;;;;;;;4970608;28;20035;-69
2021/07/30 02:16:41;;;;;;;11.75;4.13;;;;;;;;;;4961606;28;20015;-69
2021/07/30 02:19:07;;;;;;;11.07;3.97;;;;;;;;;;4971116;28;20045;-69
2021/07/30 02:21:33;;;;;;;9.93;4.63;;;;;;;;;;4965042;28;20109;-69
2021/07/30 02:23:59;;;;;;;10.73;4.80;;;;;;;;;;4968550;28;20027;-69
2021/07/30 02:26:25;;;;;;;8.90;4.22;;;;;;;;;;4970522;28;20054;-68
2021/07/30 02:28:51;;;;;;;10.00;4.28;;;;;;;;;;4970734;28;20101;-68
2021/07/30 02:31:17;;;;;;;14.40;4.28;;;;;;;;;;4969795;28;20117;-68
2021/07/30 02:33:43;;;;;;;11.52;5.07;;;;;;;;;;4971032;28;20493;-69
2021/07/30 02:36:09;;;;;;;16.67;5.35;;;;;;;;;;4970687;28;20392;-68
2021/07/30 02:38:35;;;;;;;13.93;4.80;;;;;;;;;;4964556;28;20031;-69
2021/07/30 02:41:01;;;;;;;14.52;4.82;;;;;;;;;;4970356;28;20034;-68
2021/07/30 02:43:27;;;;;;;13.10;3.85;;;;;;;;;;4970890;28;20018;-68
2021/07/30 02:45:53;;;;;;;12.93;4.55;;;;;;;;;;4963165;28;20109;-69
2021/07/30 02:48:19;;;;;;;14.45;4.75;;;;;;;;;;4974088;28;20034;-69
2021/07/30 02:50:44;;;;;;;17.65;5.50;;;;;;;;;;4985268;28;20030;-69
2021/07/30 02:53:11;;;;;;;14.65;4.78;;;;;;;;;;4986087;28;20030;-69
2021/07/30 02:55:37;;;;;;;8.25;4.32;;;;;;;;;;4981520;28;20019;-69
2021/07/30 02:58:02;;;;;;;15.93;5.25;;;;;;;;;;4987353;28;20663;-69
2021/07/30 03:00:28;;;;;;;18.88;4.55;;;;;;;;;;4973195;28;20090;-69
2021/07/30 03:02:54;;;;;;;10.27;4.50;;;;;;;;;;4975287;28;20038;-68
2021/07/30 03:05:20;;;;;;;13.63;4.10;;;;;;;;;;4969718;28;20034;-68
2021/07/30 03:07:46;;;;;;;9.23;3.92;;;;;;;;;;4975137;28;20106;-69
2021/07/30 03:10:12;;;;;;;14.82;3.90;;;;;;;;;;4974638;28;20432;-69
2021/07/30 03:12:38;;;;;;;9.45;4.28;;;;;;;;;;4974429;28;20102;-69
2021/07/30 03:15:04;;;;;;;8.90;3.95;;;;;;;;;;4974322;28;20101;-69
2021/07/30 03:17:30;;;;;;;14.27;4.70;;;;;;;;;;4974582;28;20023;-68
2021/07/30 03:19:56;;;;;;;11.02;4.53;;;;;;;;;;4964715;28;20037;-69
2021/07/30 03:22:22;;;;;;;10.82;4.30;;;;;;;;;;4973297;28;20062;-69
2021/07/30 03:24:48;;;;;;;9.23;4.70;;;;;;;;;;4973899;28;20031;-69
2021/07/30 03:27:14;;;;;;;11.90;4.47;;;;;;;;;;4974265;28;20031;-69
2021/07/30 03:29:40;;;;;;;8.80;3.92;;;;;;;;;;4973713;28;20404;-69
2021/07/30 03:32:08;;;;;;;12.02;4.22;;;;;;;;;;4973138;28;20633;-69
2021/07/30 03:34:34;;;;;;;12.38;6.18;;;;;;;;;;4971965;28;20050;-69
2021/07/30 03:37:00;;;;;;;19.27;5.93;;;;;;;;;;4973978;28;20057;-69
2021/07/30 03:39:27;;;;;;;13.93;4.97;;;;;;;;;;4971473;28;20073;-68
2021/07/30 03:41:52;;;;;;;10.98;4.57;;;;;;;;;;4970508;28;20433;-69
2021/07/30 03:44:18;;;;;;;11.43;4.93;;;;;;;;;;4974049;28;20070;-69
2021/07/30 03:46:44;;;;;;;12.55;5.45;;;;;;;;;;4969838;28;20034;-69
2021/07/30 03:49:10;;;;;;;9.70;4.72;;;;;;;;;;4974352;28;20034;-69
2021/07/30 03:51:36;;;;;;;15.40;5.63;;;;;;;;;;4973373;28;20026;-69
2021/07/30 03:54:02;;;;;;;9.82;5.15;;;;;;;;;;4967735;28;20027;-69
2021/07/30 03:56:28;;;;;;;13.27;5.43;;;;;;;;;;4973716;28;20022;-69
2021/07/30 03:58:54;;;;;;;13.50;5.80;;;;;;;;;;4973483;28;20448;-69
2021/07/30 04:01:20;;;;;;;12.27;5.05;;;;;;;;;;4973948;28;20035;-69
2021/07/30 04:03:46;;;;;;;13.93;5.80;;;;;;;;;;4974416;28;20088;-69
2021/07/30 04:06:12;;;;;;;16.48;6.00;;;;;;;;;;4995119;28;20015;-69
2021/07/30 04:08:39;;;;;;;12.45;5.20;;;;;;;;;;4994642;28;20060;-69
2021/07/30 04:11:05;;;;;;;10.32;5.45;;;;;;;;;;4994346;28;20033;-69
2021/07/30 04:13:32;;;;;;;12.40;5.05;;;;;;;;;;4975883;28;20027;-69
2021/07/30 04:16:05;;;;;;;16.38;6.25;;;;;;;;;;4972655;28;20113;-69
2021/07/30 04:18:31;;;;;;;15.68;6.20;;;;;;;;;;4961692;28;20034;-68
2021/07/30 04:20:57;;;;;;;11.73;6.05;;;;;;;;;;4966301;28;20027;-69
2021/07/30 04:23:23;;;;;;;10.02;5.30;;;;;;;;;;4972813;28;20610;-69
2021/07/30 04:25:49;;;;;;;13.02;5.70;;;;;;;;;;4967529;28;20041;-69
2021/07/30 04:28:15;;;;;;;15.35;6.60;;;;;;;;;;4972650;28;20501;-69
2021/07/30 04:30:41;;;;;;;12.85;5.53;;;;;;;;;;4972968;28;20081;-68
2021/07/30 04:33:09;;;;;;;14.38;5.90;;;;;;;;;;4963634;28;20035;-69
2021/07/30 04:35:36;;;;;;;16.98;5.85;;;;;;;;;;4972461;28;20613;-69
2021/07/30 04:38:02;;;;;;;16.25;5.40;;;;;;;;;;4972489;28;20026;-68
2021/07/30 04:40:28;;;;;;;15.05;5.30;;;;;;;;;;4972965;28;20106;-69
2021/07/30 04:42:57;;;;;;;11.75;5.93;;;;;;;;;;4972893;28;20126;-68
2021/07/30 04:45:23;;;;;;;18.53;5.17;;;;;;;;;;4971972;28;20055;-69
2021/07/30 04:47:49;;;;;;;11.63;4.97;;;;;;;;;;4967585;28;20026;-69
2021/07/30 04:50:15;;;;;;;15.45;5.40;;;;;;;;;;4971936;28;20027;-69
2021/07/30 04:52:41;;;;;;;10.82;5.32;;;;;;;;;;4969091;28;20061;-69
2021/07/30 04:55:07;;;;;;;21.58;5.50;;;;;;;;;;4972160;28;20019;-69
2021/07/30 04:57:33;;;;;;;9.30;5.05;;;;;;;;;;4972606;28;20023;-69
2021/07/30 04:59:59;;;;;;;14.45;6.10;;;;;;;;;;4971728;28;20031;-69
2021/07/30 05:02:25;;;;;;;13.65;5.10;;;;;;;;;;4965306;28;20034;-69
2021/07/30 05:04:54;;;;;;;18.38;6.72;;;;;;;;;;4972216;28;20034;-68
2021/07/30 05:07:20;;;;;;;11.98;5.35;;;;;;;;;;4972214;28;20029;-69
2021/07/30 05:09:46;;;;;;;12.70;5.78;;;;;;;;;;4972206;28;20104;-69
2021/07/30 05:12:12;;;;;;;13.80;6.15;;;;;;;;;;4972120;28;20027;-69
2021/07/30 05:14:38;;;;;;;15.05;6.15;;;;;;;;;;4971534;28;20080;-69
2021/07/30 05:17:04;;;;;;;10.65;5.05;;;;;;;;;;4972215;28;20488;-69
2021/07/30 05:19:30;;;;;;;13.43;5.47;;;;;;;;;;4965025;28;20053;-69
2021/07/30 05:21:56;;;;;;;16.88;5.88;;;;;;;;;;4967708;28;20469;-69
2021/07/30 05:24:22;;;;;;;14.90;5.78;;;;;;;;;;4971473;28;20031;-69
2021/07/30 05:26:48;;;;;;;12.80;5.63;;;;;;;;;;4966026;28;20410;-69
2021/07/30 05:29:13;;;;;;;19.33;6.00;;;;;;;;;;4972039;28;20027;-69
2021/07/30 05:31:39;;;;;;;15.60;5.70;;;;;;;;;;4972524;28;20026;-69
2021/07/30 05:34:05;;;;;;;16.38;7.03;;;;;;;;;;4971548;28;20049;-69
2021/07/30 05:36:31;;;;;;;12.77;5.47;;;;;;;;;;4971712;28;20031;-69
2021/07/30 05:38:57;;;;;;;15.88;5.90;;;;;;;;;;4970898;28;20097;-69
2021/07/30 05:41:23;;;;;;;11.50;4.80;;;;;;;;;;4970554;28;20114;-69
2021/07/30 05:43:50;;;;;;;10.68;4.38;;;;;;;;;;4971934;28;20026;-69
2021/07/30 05:46:19;;;;;;;17.02;4.95;;;;;;;;;;4971521;28;20031;-69
2021/07/30 05:48:45;;;;;;;10.07;5.30;;;;;;;;;;4971434;28;20031;-69
2021/07/30 05:51:12;;;;;;;15.05;5.82;;;;;;;;;;4971755;28;20054;-69
2021/07/30 05:53:38;;;;;;;12.80;5.38;;;;;;;;;;4973763;28;20574;-70
2021/07/30 05:56:04;;;;;;;13.85;4.60;;;;;;;;;;4973518;28;20657;-69
2021/07/30 05:58:31;;;;;;;14.40;4.78;;;;;;;;;;4964216;28;20089;-69
2021/07/30 06:00:57;;;;;;;14.35;4.05;;;;;;;;;;4975404;28;20223;-69
2021/07/30 06:03:23;;;;;;;10.02;4.90;;;;;;;;;;4972170;28;20469;-69
2021/07/30 06:05:49;;;;;;;9.65;3.50;;;;;;;;;;4971684;28;20054;-69
2021/07/30 06:08:15;;;;;;;14.55;4.47;;;;;;;;;;4970734;28;20429;-69
2021/07/30 06:10:41;;;;;;;10.85;3.88;;;;;;;;;;4968761;28;20062;-69
2021/07/30 06:13:07;;;;;;;12.38;4.95;;;;;;;;;;4971306;28;20031;-69
2021/07/30 06:15:33;;;;;;;14.18;4.60;;;;;;;;;;4962759;28;20477;-69
2021/07/30 06:18:01;;;;;;;7.97;3.97;;;;;;;;;;4970801;28;20019;-69
2021/07/30 06:20:27;;;;;;;13.23;4.75;;;;;;;;;;4967024;28;20071;-69
2021/07/30 06:22:53;;;;;;;12.85;3.95;;;;;;;;;;4970392;28;20055;-69
2021/07/30 06:25:19;;;;;;;9.18;4.18;;;;;;;;;;4970994;28;20351;-69
2021/07/30 06:27:45;;;;;;;11.20;4.03;;;;;;;;;;4970865;28;20078;-69
2021/07/30 06:30:11;;;;;;;10.68;4.25;;;;;;;;;;4967846;28;20464;-69
2021/07/30 06:32:40;;;;;;;11.32;4.25;;;;;;;;;;4969134;28;20023;-69
2021/07/30 06:35:06;;;;;;;14.85;3.70;;;;;;;;;;4973615;28;20027;-70
2021/07/30 06:37:36;;;;;;;19.15;4.68;;;;;;;;;;4975316;28;20031;-69
2021/07/30 06:40:03;;;;;;;9.93;4.05;;;;;;;;;;4975382;28;20034;-69
2021/07/30 06:42:29;;;;;;;11.63;4.50;;;;;;;;;;4992350;28;20022;-70
2021/07/30 06:44:55;;;;;;;11.15;4.57;;;;;;;;;;4992448;28;20062;-70
2021/07/30 06:47:23;;;;;;;10.02;3.75;;;;;;;;;;4986615;28;20023;-69
2021/07/30 06:49:49;;;;;;;11.57;3.60;;;;;;;;;;4974494;28;20127;-69
2021/07/30 06:52:15;;;;;;;10.15;4.07;;;;;;;;;;4973840;28;20027;-69
2021/07/30 06:54:41;;;;;;;10.75;4.07;;;;;;;;;;4973180;28;20090;-69
2021/07/30 06:57:07;;;;;;;6.85;3.58;;;;;;;;;;4973392;28;20019;-69
2021/07/30 06:59:33;;;;;;;8.43;4.07;;;;;;;;;;4973263;28;20037;-69
2021/07/30 07:02:02;;;;;;;10.98;4.63;;;;;;;;;;4974230;28;20023;-69
2021/07/30 07:04:28;;;;;;;7.63;4.25;;;;;;;;;;4970645;28;20045;-69
2021/07/30 07:06:54;;;;;;;11.98;4.10;;;;;;;;;;4970141;28;20070;-69
2021/07/30 07:09:20;;;;;;;14.75;4.05;;;;;;;;;;4973843;28;20026;-69
2021/07/30 07:11:46;;;;;;;10.95;4.13;;;;;;;;;;4973549;28;20038;-69
2021/07/30 07:14:13;;;;;;;10.07;4.70;;;;;;;;;;4974552;28;20031;-69
2021/07/30 07:16:41;;;;;;;10.30;4.68;;;;;;;;;;4971247;28;20401;-69
2021/07/30 07:19:09;;;;;;;10.25;5.25;;;;;;;;;;4974098;28;20026;-69
2021/07/30 07:21:35;;;;;;;11.30;4.25;;;;;;;;;;4973084;28;20161;-69
2021/07/30 07:24:01;;;;;;;16.98;6.50;;;;;;;;;;4973814;28;20501;-69
2021/07/30 07:26:27;;;;;;;16.15;5.65;;;;;;;;;;4972982;28;20084;-69
2021/07/30 07:28:53;;;;;;;21.80;5.97;;;;;;;;;;4972939;28;20035;-69
2021/07/30 07:31:19;;;;;;;12.73;4.85;;;;;;;;;;4973227;28;20030;-69
2021/07/30 07:33:45;;;;;;;16.30;5.43;;;;;;;;;;4970766;28;20034;-70
2021/07/30 07:36:11;;;;;;;11.55;5.18;;;;;;;;;;4971271;28;20030;-69
2021/07/30 07:38:37;;;;;;;8.50;4.32;;;;;;;;;;4967597;28;20027;-71
2021/07/30 07:41:03;;;;;;;14.02;4.85;;;;;;;;;;4972159;28;20037;-71
2021/07/30 07:43:29;;;;;;;11.18;4.78;;;;;;;;;;4970804;28;20019;-71
2021/07/30 07:45:55;;;;;;;12.52;4.13;;;;;;;;;;4973018;28;20030;-70
2021/07/30 07:48:21;;;;;;;8.43;3.50;;;;;;;;;;4971457;28;20031;-69
2021/07/30 07:50:47;;;;;;;11.98;4.22;;;;;;;;;;4973059;28;20472;-69
2021/07/30 07:53:17;;;;;;;12.52;3.90;;;;;;;;;;4974017;28;20507;-69
2021/07/30 07:55:44;;;;;;;7.28;3.20;;;;;;;;;;4975005;28;20511;-69
2021/07/30 07:58:10;;;;;;;11.43;4.22;;;;;;;;;;4972942;28;20023;-69
2021/07/30 08:00:36;;;;;;;10.65;3.85;;;;;;;;;;4973045;28;20027;-71
2021/07/30 08:03:02;;;;;;;7.95;3.28;;;;;;;;;;4972668;28;20114;-70
2021/07/30 08:05:28;;;;;;;7.40;3.28;;;;;;;;;;4971623;28;20035;-71
2021/07/30 08:07:54;;;;;;;10.80;3.40;;;;;;;;;;4969603;28;20081;-71
2021/07/30 08:10:20;;;;;;;6.30;3.20;;;;;;;;;;4972107;28;20090;-70
2021/07/30 08:12:46;;;;;;;6.72;4.13;;;;;;;;;;4973114;28;20492;-70
2021/07/30 08:15:13;;;;;;;9.35;3.45;;;;;;;;;;4972970;28;20097;-71
2021/07/30 08:17:39;;;;;;;10.15;3.42;;;;;;;;;;4969916;28;20027;-71
2021/07/30 08:20:06;;;;;;;5.28;2.45;;;;;;;;;;4972535;28;20050;-71
2021/07/30 08:22:32;;;;;;;8.20;3.38;;;;;;;;;;4971146;28;20035;-71
2021/07/30 08:24:58;;;;;;;9.52;3.15;;;;;;;;;;4968034;28;20085;-71
2021/07/30 08:27:24;;;;;;;7.80;3.40;;;;;;;;;;4964509;28;20604;-71
2021/07/30 08:29:50;;;;;;;10.02;3.50;;;;;;;;;;4971775;28;20045;-70
2021/07/30 08:32:17;;;;;;;6.93;3.72;;;;;;;;;;4973298;28;20109;-71
2021/07/30 08:34:43;;;;;;;10.02;3.70;;;;;;;;;;4972308;28;20535;-71
2021/07/30 08:37:09;;;;;;;12.15;4.10;;;;;;;;;;4969546;28;20035;-70
2021/07/30 08:39:36;;;;;;;9.73;3.72;;;;;;;;;;4971839;28;20031;-71
2021/07/30 08:42:03;;;;;;;10.35;4.32;;;;;;;;;;4969287;28;20034;-71
2021/07/30 08:44:29;;;;;;;8.95;3.95;;;;;;;;;;4972379;28;20105;-71
2021/07/30 08:46:55;;;;;;;9.02;4.10;;;;;;;;;;4971070;28;20077;-71
2021/07/30 08:49:21;;;;;;;11.45;3.13;;;;;;;;;;4972035;28;20605;-71
2021/07/30 08:51:50;;;;;;;10.85;3.65;;;;;;;;;;4971181;28;20105;-71
2021/07/30 08:54:16;;;;;;;11.90;3.83;;;;;;;;;;4971134;28;20031;-71
2021/07/30 08:56:42;;;;;;;10.38;4.00;;;;;;;;;;4971327;28;20026;-71
2021/07/30 08:59:08;;;;;;;10.15;3.47;;;;;;;;;;4971530;28;20038;-71
2021/07/30 09:01:34;;;;;;;11.68;4.22;;;;;;;;;;4969305;28;20118;-71
2021/07/30 09:04:00;;;;;;;9.52;3.50;;;;;;;;;;4969922;28;20023;-71
2021/07/30 09:06:26;;;;;;;8.73;2.70;;;;;;;;;;4960736;28;20501;-71
2021/07/30 09:08:55;;;;;;;9.27;3.03;;;;;;;;;;4971589;28;20034;-71
2021/07/30 09:11:31;;;;;;;8.45;3.00;;;;;;;;;;4969183;28;20401;-71
2021/07/30 09:13:58;;;;;;;7.57;3.35;;;;;;;;;;4973430;28;20413;-71
2021/07/30 09:16:24;;;;;;;10.93;3.42;;;;;;;;;;4982019;28;20023;-71
2021/07/30 09:18:54;;;;;;;7.47;2.88;;;;;;;;;;4982401;28;20031;-72
2021/07/30 09:21:30;;;;;;;6.70;2.47;;;;;;;;;;4982244;28;20034;-71
2021/07/30 09:24:00;;;;;;;9.48;3.45;;;;;;;;;;4970598;28;20038;-71
2021/07/30 09:26:39;;;;;;;9.35;2.78;;;;;;;;;;4970980;28;20034;-71
2021/07/30 09:29:05;;;;;;;8.52;3.03;;;;;;;;;;4970621;28;20031;-71
2021/07/30 09:31:55;;;;;;;7.97;3.00;;;;;;;;;;4970336;28;20086;-71
2021/07/30 09:34:25;;;;;;;6.82;2.78;;;;;;;;;;4968902;28;20054;-71
2021/07/30 09:36:53;;;;;;;9.75;3.67;;;;;;;;;;4970406;28;20025;-71
2021/07/30 09:39:20;;;;;;;8.90;3.53;;;;;;;;;;4969586;28;20049;-72
2021/07/30 09:42:01;;;;;;;10.13;3.10;;;;;;;;;;4967322;28;20485;-71
2021/07/30 09:44:27;;;;;;;8.02;3.35;;;;;;;;;;4967705;28;20027;-74
2021/07/30 09:47:04;;;;;;;7.68;3.53;;;;;;;;;;4969399;28;20031;-71
2021/07/30 09:49:48;;;;;;;12.40;3.33;;;;;;;;;;4969178;28;20045;-71
2021/07/30 09:52:18;;;;;;;7.78;3.15;;;;;;;;;;4968870;28;20015;-69
2021/07/30 09:54:51;;;;;;;8.70;3.05;;;;;;;;;;4963116;28;20711;-70
2021/07/30 09:57:19;;;;;;;8.18;3.35;;;;;;;;;;4964136;28;20057;-69
2021/07/30 09:59:45;;;;;;;10.43;3.47;;;;;;;;;;4968190;28;20070;-69
2021/07/30 10:02:15;;;;;;;11.45;3.92;;;;;;;;;;4977352;28;20029;-69
2021/07/30 10:04:44;;;;;;;6.97;3.40;;;;;;;;;;4974301;28;20050;-70
2021/07/30 10:07:12;;;;;;;7.82;3.63;;;;;;;;;;4980004;28;20050;-70
2021/07/30 10:09:38;;;;;;;9.65;3.88;;;;;;;;;;4979704;28;20034;-70
2021/07/30 10:12:04;;;;;;;9.57;3.28;;;;;;;;;;4979817;28;20030;-70
2021/07/30 10:14:30;;;;;;;11.32;3.60;;;;;;;;;;4976285;28;20030;-69
2021/07/30 10:17:02;;;;;;;6.13;3.13;;;;;;;;;;4974503;28;20034;-70
2021/07/30 10:19:30;;;;;;;8.23;4.25;;;;;;;;;;4970137;28;20484;-70
2021/07/30 10:21:57;;;;;;;9.38;3.45;;;;;;;;;;4970962;28;20078;-70
2021/07/30 10:24:24;;;;;;;6.68;3.15;;;;;;;;;;4970675;28;20085;-70
2021/07/30 10:26:50;;;;;;;10.10;4.13;;;;;;;;;;4969995;28;20022;-69
2021/07/30 10:29:16;;;;;;;6.75;3.00;;;;;;;;;;4969893;28;20023;-69
2021/07/30 10:31:49;;;;;;;8.48;3.50;;;;;;;;;;4970397;28;20038;-69
2021/07/30 10:34:15;;;;;;;8.00;2.92;;;;;;;;;;4971195;28;20452;-69
2021/07/30 10:36:42;;;;;;;6.93;4.00;;;;;;;;;;4970607;28;20030;-69
2021/07/30 10:39:10;;;;;;;7.95;4.43;;;;;;;;;;4969090;28;20065;-69
2021/07/30 10:41:36;;;;;;;10.27;4.37;;;;;;;;;;4970020;28;20110;-69
2021/07/30 10:44:03;;;;;;;8.10;4.18;;;;;;;;;;4964785;28;20452;-69
2021/07/30 10:46:29;;;;;;;11.77;4.53;;;;;;;;;;4970100;28;20031;-69
2021/07/30 10:48:55;;;;;;;14.43;4.50;;;;;;;;;;4965003;28;20101;-69
2021/07/30 10:51:21;;;;;;;10.05;3.95;;;;;;;;;;4964402;28;20051;-69
2021/07/30 10:54:00;;;;;;;8.20;4.50;;;;;;;;;;4967061;28;20025;-69
2021/07/30 10:56:32;;;;;;;7.53;4.18;;;;;;;;;;4969904;28;20503;-70
2021/07/30 10:59:01;;;;;;;9.25;4.25;;;;;;;;;;4964080;28;20461;-69
2021/07/30 11:01:27;;;;;;;7.82;3.58;;;;;;;;;;4968152;28;20027;-70
2021/07/30 11:03:54;;;;;;;7.00;3.03;;;;;;;;;;4967322;28;20023;-70
2021/07/30 11:06:27;;;;;;;6.70;3.10;;;;;;;;;;4969295;28;20026;-69
2021/07/30 11:09:04;;;;;;;4.57;3.78;;;;;;;;;;4968968;28;20030;-69
2021/07/30 11:11:50;;;;;;;5.30;3.08;;;;;;;;;;4966011;28;20110;-69
2021/07/30 11:14:16;;;;;;;7.63;3.20;;;;;;;;;;4975434;28;20117;-69
2021/07/30 11:17:03;;;;;;;8.85;3.45;;;;;;;;;;4973461;28;20034;-69
2021/07/30 11:19:29;;;;;;;6.40;3.38;;;;;;;;;;4983442;28;20090;-70
2021/07/30 11:21:56;;;;;;;9.00;3.45;;;;;;;;;;4983084;28;20049;-69
2021/07/30 11:24:22;;;;;;;5.72;2.78;;;;;;;;;;4975090;28;20473;-70
2021/07/30 11:26:49;;;;;;;7.55;2.80;;;;;;;;;;4973048;28;20440;-70
2021/07/30 11:29:19;;;;;;;6.07;3.42;;;;;;;;;;4963787;28;20432;-70
2021/07/30 11:31:53;;;;;;;7.78;3.90;;;;;;;;;;4973339;28;20022;-69
2021/07/30 11:34:19;;;;;;;9.75;3.45;;;;;;;;;;4969770;28;20081;-70
2021/07/30 11:36:48;;;;;;;5.40;3.53;;;;;;;;;;4972856;28;20497;-70
2021/07/30 11:39:14;;;;;;;4.85;2.90;;;;;;;;;;4973482;28;20485;-70
2021/07/30 11:41:46;;;;;;;8.80;3.15;;;;;;;;;;4970514;28;20031;-70
2021/07/30 11:44:12;;;;;;;6.25;3.22;;;;;;;;;;4972807;28;20026;-70
2021/07/30 11:46:38;;;;;;;4.95;3.10;;;;;;;;;;4972254;28;20373;-69
2021/07/30 11:49:07;;;;;;;7.07;2.75;;;;;;;;;;4975465;28;20062;-69
2021/07/30 11:51:38;;;;;;;8.43;3.17;;;;;;;;;;4981317;28;20135;-69
2021/07/30 11:54:04;;;;;;;4.05;2.80;;;;;;;;;;4982681;28;20106;-70
2021/07/30 11:56:42;;;;;;;4.25;2.60;;;;;;;;;;4973519;28;20035;-69
2021/07/30 11:59:08;;;;;;;7.68;2.97;;;;;;;;;;4971023;28;20034;-69
2021/07/30 12:01:34;;;;;;;8.00;3.80;;;;;;;;;;4970774;28;20212;-69
2021/07/30 12:04:06;;;;;;;7.97;3.10;;;;;;;;;;4971033;28;20458;-69
2021/07/30 12:06:36;;;;;;;9.20;3.92;;;;;;;;;;4970724;28;20023;-69
2021/07/30 12:09:02;;;;;;;11.52;4.50;;;;;;;;;;4971396;28;20034;-69
2021/07/30 12:11:29;;;;;;;8.73;4.70;;;;;;;;;;4970612;28;20035;-71
2021/07/30 12:13:55;;;;;;;8.50;4.18;;;;;;;;;;4967372;28;20050;-69
2021/07/30 12:16:21;;;;;;;6.63;4.25;;;;;;;;;;4970143;28;20418;-69
2021/07/30 12:18:47;;;;;;;7.55;3.92;;;;;;;;;;4967420;28;20125;-69
2021/07/30 12:21:13;;;;;;;7.53;4.05;;;;;;;;;;4970278;28;20488;-70
2021/07/30 12:23:39;;;;;;;7.90;4.50;;;;;;;;;;4970805;28;20022;-69
2021/07/30 12:26:05;;;;;;;7.57;3.67;;;;;;;;;;4970185;28;20034;-69
2021/07/30 12:28:49;;;;;;;8.35;3.88;;;;;;;;;;4968873;28;20546;-69
2021/07/30 12:31:16;;;;;;;6.85;4.00;;;;;;;;;;4969378;28;20022;-69
2021/07/30 12:33:42;;;;;;;8.35;4.35;;;;;;;;;;4970157;28;20084;-69
2021/07/30 12:36:12;;;;;;;5.47;4.32;;;;;;;;;;4971467;28;20129;-69
2021/07/30 12:38:51;;;;;;;7.30;4.30;;;;;;;;;;4968034;28;20050;-69
2021/07/30 12:41:18;;;;;;;6.75;4.80;;;;;;;;;;4967007;28;20034;-71
2021/07/30 12:43:45;;;;;;;9.88;5.43;;;;;;;;;;4970832;28;20023;-70
2021/07/30 12:46:11;;;;;;;8.25;5.28;;;;;;;;;;4971937;28;20041;-70
2021/07/30 12:48:49;;;;;;;11.88;5.85;;;;;;;;;;4970903;28;20018;-70
2021/07/30 12:51:25;;;;;;;8.55;5.50;;;;;;;;;;4970770;28;20389;-70
2021/07/30 12:54:07;;;;;;;13.30;6.55;;;;;;;;;;4973680;28;20667;-70
2021/07/30 12:56:52;;;;;;;8.75;6.22;;;;;;;;;;4971998;28;20057;-69
2021/07/30 12:59:18;;;;;;;13.73;7.82;;;;;;;;;;4969386;28;20034;-69
2021/07/30 13:01:44;;;;;;;17.80;8.27;;;;;;;;;;4964709;28;20031;-69
2021/07/30 13:04:11;;;;;;;17.83;8.10;;;;;;;;;;4971752;28;20045;-69
2021/07/30 13:06:39;;;;;;;11.75;8.45;;;;;;;;;;4959956;28;20030;-69
2021/07/30 13:09:05;;;;;;;14.20;8.35;;;;;;;;;;4970860;28;20062;-69
2021/07/30 13:11:31;;;;;;;13.57;8.65;;;;;;;;;;4968724;28;20015;-69
2021/07/30 13:13:57;;;;;;;10.98;9.18;;;;;;;;;;4969894;28;20393;-69
2021/07/30 13:16:23;;;;;;;13.20;8.63;;;;;;;;;;4970131;28;20023;-69
2021/07/30 13:18:49;;;;;;;12.45;9.02;;;;;;;;;;4970654;28;20030;-70
2021/07/30 13:21:15;;;;;;;13.32;9.23;;;;;;;;;;4970466;28;20054;-69
2021/07/30 13:23:41;;;;;;;11.60;8.95;;;;;;;;;;4970954;28;20023;-69
2021/07/30 13:26:07;;;;;;;12.48;8.77;;;;;;;;;;4967437;28;20411;-69
2021/07/30 13:28:33;;;;;;;14.48;9.32;;;;;;;;;;4970258;28;20499;-69
2021/07/30 13:30:59;;;;;;;10.60;8.77;;;;;;;;;;4962222;28;20031;-69
2021/07/30 13:33:25;;;;;;;14.18;8.50;;;;;;;;;;4970868;28;20177;-69
2021/07/30 13:35:52;;;;;;;13.60;10.10;;;;;;;;;;4969169;28;20416;-69
2021/07/30 13:38:18;;;;;;;13.23;8.75;;;;;;;;;;4964690;28;20026;-69
2021/07/30 13:40:44;;;;;;;10.90;8.52;;;;;;;;;;4970553;28;20038;-69
2021/07/30 13:43:10;;;;;;;12.20;9.15;;;;;;;;;;4970444;28;20022;-69
2021/07/30 13:45:37;;;;;;;13.63;8.82;;;;;;;;;;4969913;28;20101;-69
2021/07/30 13:48:03;;;;;;;8.90;7.22;;;;;;;;;;4970578;28;20031;-69
2021/07/30 13:50:30;;;;;;;12.75;7.65;;;;;;;;;;4970298;28;20038;-69
2021/07/30 13:52:56;;;;;;;10.43;7.70;;;;;;;;;;4967372;28;20033;-69
2021/07/30 13:55:22;;;;;;;8.82;6.60;;;;;;;;;;4968336;28;20038;-69
2021/07/30 13:57:48;;;;;;;10.07;7.38;;;;;;;;;;4969058;28;20023;-69
2021/07/30 14:00:14;;;;;;;8.95;6.57;;;;;;;;;;4967714;28;20527;-69
2021/07/30 14:02:40;;;;;;;10.32;6.97;;;;;;;;;;4969599;28;20387;-70
2021/07/30 14:05:07;;;;;;;9.15;6.20;;;;;;;;;;4970234;28;20027;-69
2021/07/30 14:07:33;;;;;;;9.90;6.22;;;;;;;;;;4970643;28;20114;-68
2021/07/30 14:09:59;;;;;;;8.52;6.57;;;;;;;;;;4966596;28;20134;-68
2021/07/30 14:12:25;;;;;;;6.88;5.97;;;;;;;;;;4968985;28;20022;-67
2021/07/30 14:14:51;;;;;;;6.28;4.85;;;;;;;;;;4967194;28;20571;-68
2021/07/30 14:17:17;;;;;;;6.80;4.70;;;;;;;;;;4965514;28;20493;-69
2021/07/30 14:19:45;;;;;;;6.78;4.65;;;;;;;;;;4967797;28;20023;-69
2021/07/30 14:22:11;;;;;;;5.40;4.15;;;;;;;;;;4979826;28;20019;-69
2021/07/30 14:24:37;;;;;;;5.70;4.20;;;;;;;;;;4980378;28;20019;-69
2021/07/30 14:27:03;;;;;;;4.47;3.85;;;;;;;;;;4979934;28;20026;-69
2021/07/30 14:29:29;;;;;;;6.18;4.20;;;;;;;;;;4966852;28;20603;-69
2021/07/30 14:31:55;;;;;;;6.97;3.92;;;;;;;;;;4967737;28;20146;-69
2021/07/30 14:34:21;;;;;;;6.35;4.57;;;;;;;;;;4964787;28;20698;-69
2021/07/30 14:36:47;;;;;;;5.07;3.75;;;;;;;;;;4967363;28;20109;-69